Time;durP1;ratioP1;P1;durP2;ratioP2;P2;SDS_P1;SDS_P2;PMS_P1;PMS_P2;Temp;Humidity;BMP_temperature;BMP_pressure;BME280_temperature;BME280_humidity;BME280_pressure;Samples;Min_cycle;Max_cycle;Signal;HPM_P1;HPM_P2
2022/08/09 00:00:20;;;;;;;0.40;0.20;;;17.80;99.90;;;;;;20513143;28;20034;-39
2022/08/09 00:10:21;;;;;;;1.13;0.50;;;17.70;99.90;;;;;;20536127;28;20400;-39
2022/08/09 00:20:22;;;;;;;0.75;0.22;;;17.60;99.90;;;;;;20524457;28;20138;-39
2022/08/09 00:30:23;;;;;;;1.08;0.50;;;17.60;99.90;;;;;;20525805;28;20105;-39
2022/08/09 00:40:24;;;;;;;1.77;0.40;;;17.50;99.90;;;;;;20537833;28;20695;-39
2022/08/09 00:50:25;;;;;;;1.85;0.50;;;17.40;99.90;;;;;;20531927;28;20114;-39
2022/08/09 01:00:30;;;;;;;0.50;0.20;;;17.30;99.90;;;;;;20522899;28;20321;-39
2022/08/09 01:10:58;;;;;;;1.40;0.43;;;17.20;99.90;;;;;;20524349;28;20117;-39
2022/08/09 01:21:09;;;;;;;;;;;17.10;99.90;;;;;;20517170;28;20730;-39
2022/08/09 01:31:15;;;;;;;1.23;0.30;;;17.00;99.90;;;;;;20542123;28;20982;-40
2022/08/09 01:41:27;;;;;;;1.27;0.50;;;16.90;99.90;;;;;;20553771;28;20050;-40
2022/08/09 01:51:29;;;;;;;1.42;0.32;;;16.90;99.90;;;;;;20531035;28;21859;-39
2022/08/09 02:01:32;;;;;;;1.15;0.47;;;16.70;99.90;;;;;;20534290;28;20138;-39
2022/08/09 02:11:33;;;;;;;1.95;0.52;;;16.70;99.90;;;;;;20538345;28;20117;-40
2022/08/09 02:21:40;;;;;;;1.20;0.40;;;16.60;99.90;;;;;;20523583;28;20030;-39
2022/08/09 02:31:45;;;;;;;3.38;0.75;;;16.50;99.90;;;;;;20537078;28;20845;-39
2022/08/09 02:42:12;;;;;;;1.35;0.50;;;16.40;99.90;;;;;;20546528;28;20432;-40
2022/08/09 02:52:15;;;;;;;1.63;0.40;;;16.30;99.90;;;;;;20530040;28;21448;-39
2022/08/09 03:02:18;;;;;;;2.25;0.88;;;16.10;99.90;;;;;;20534302;28;20406;-39
2022/08/09 03:12:19;;;;;;;3.05;0.93;;;16.00;99.90;;;;;;20529496;28;20031;-39
2022/08/09 03:22:21;;;;;;;1.05;0.40;;;16.00;99.90;;;;;;20525064;28;20111;-40
2022/08/09 03:32:23;;;;;;;3.38;0.63;;;16.00;99.90;;;;;;20504423;28;20534;-39
2022/08/09 03:42:24;;;;;;;2.65;1.27;;;15.80;99.90;;;;;;20497455;28;20454;-39
2022/08/09 03:52:28;;;;;;;2.03;1.25;;;15.70;99.90;;;;;;20493181;28;20039;-39
2022/08/09 04:02:30;;;;;;;2.45;0.68;;;15.70;99.90;;;;;;20534741;28;20439;-39
2022/08/09 04:12:45;;;;;;;2.30;0.85;;;15.50;99.90;;;;;;20542037;28;20073;-39
2022/08/09 04:22:47;;;;;;;2.58;0.70;;;15.50;99.90;;;;;;20523358;28;21552;-39
2022/08/09 04:32:48;;;;;;;1.65;0.65;;;15.50;99.90;;;;;;20515135;28;20038;-39
2022/08/09 04:42:49;;;;;;;1.70;0.70;;;15.50;99.90;;;;;;20528963;28;20118;-40
2022/08/09 04:52:50;;;;;;;1.58;0.93;;;15.50;99.90;;;;;;20511599;28;20650;-40
2022/08/09 05:02:51;;;;;;;2.63;1.20;;;15.50;99.90;;;;;;20522847;28;20518;-40
2022/08/09 05:12:52;;;;;;;4.40;1.60;;;15.60;99.90;;;;;;20517901;28;20462;-39
2022/08/09 05:22:54;;;;;;;1.77;1.30;;;15.70;99.90;;;;;;20539194;28;20532;-40
2022/08/09 05:32:55;;;;;;;1.40;0.65;;;15.90;99.90;;;;;;20532080;28;20823;-39
2022/08/09 05:42:56;;;;;;;2.28;0.95;;;16.40;99.90;;;;;;20537022;28;20327;-39
2022/08/09 05:52:57;;;;;;;2.22;1.02;;;16.60;99.90;;;;;;20534742;28;20717;-40
2022/08/09 06:03:00;;;;;;;1.60;0.52;;;17.70;99.90;;;;;;20537639;28;20035;-39
2022/08/09 06:13:01;;;;;;;2.08;0.88;;;17.60;99.90;;;;;;20541462;28;20096;-39
2022/08/09 06:23:02;;;;;;;1.85;0.68;;;17.90;99.90;;;;;;20556371;28;20555;-39
2022/08/09 06:33:03;;;;;;;1.92;0.82;;;18.20;99.90;;;;;;20547197;28;20387;-39
2022/08/09 06:43:04;;;;;;;1.55;0.70;;;18.40;99.90;;;;;;20534418;28;20047;-39
2022/08/09 06:53:05;;;;;;;0.93;0.40;;;18.60;99.90;;;;;;20541086;28;20043;-39
2022/08/09 07:03:06;;;;;;;0.90;0.60;;;18.70;99.90;;;;;;20536437;28;20444;-39
2022/08/09 07:13:07;;;;;;;3.50;1.20;;;18.90;99.90;;;;;;20553277;28;20210;-39
2022/08/09 07:23:09;;;;;;;1.58;0.63;;;19.00;99.90;;;;;;20533446;28;20112;-39
2022/08/09 07:33:10;;;;;;;0.70;0.30;;;19.10;99.90;;;;;;20533475;28;20702;-39
2022/08/09 07:43:11;;;;;;;0.82;0.20;;;19.20;99.90;;;;;;20540892;28;20078;-39
2022/08/09 07:53:11;;;;;;;0.80;0.30;;;19.30;99.90;;;;;;20522094;28;20059;-39
2022/08/09 08:03:13;;;;;;;2.47;0.52;;;19.40;99.90;;;;;;20507180;28;20145;-39
2022/08/09 08:13:14;;;;;;;0.60;0.20;;;19.60;99.90;;;;;;20526547;28;20101;-39
2022/08/09 08:23:16;;;;;;;0.40;0.20;;;19.70;99.90;;;;;;20530261;28;20089;-39
2022/08/09 08:33:17;;;;;;;1.48;0.38;;;20.00;99.90;;;;;;20536846;28;20553;-39
2022/08/09 08:43:18;;;;;;;0.30;0.20;;;20.20;99.90;;;;;;20523983;28;20137;-40
2022/08/09 08:53:19;;;;;;;2.63;0.20;;;20.50;99.90;;;;;;20533348;28;20064;-39
2022/08/09 09:03:21;;;;;;;0.63;0.20;;;21.00;99.90;;;;;;20497614;28;20109;-39
2022/08/09 09:13:22;;;;;;;0.63;0.10;;;21.30;99.90;;;;;;20530228;28;21764;-39
2022/08/09 09:23:42;;;;;;;0.10;0.00;;;21.90;99.90;;;;;;20506612;28;20035;-40
2022/08/09 09:33:43;;;;;;;0.68;0.10;;;22.30;99.90;;;;;;20538607;28;20311;-39
2022/08/09 09:43:44;;;;;;;0.57;0.30;;;22.50;99.90;;;;;;20530001;28;20124;-39
2022/08/09 09:53:46;;;;;;;0.50;0.05;;;22.70;99.90;;;;;;20542345;28;20414;-40
2022/08/09 10:03:49;;;;;;;0.47;0.20;;;23.10;99.90;;;;;;20543293;28;20035;-39
2022/08/09 10:13:52;;;;;;;0.40;0.20;;;23.50;99.90;;;;;;20554089;28;20082;-40
2022/08/09 10:23:54;;;;;;;0.47;0.10;;;23.90;99.90;;;;;;20555929;28;20038;-40
2022/08/09 10:33:56;;;;;;;0.52;0.10;;;24.10;99.90;;;;;;20580945;28;20096;-40
2022/08/09 10:43:57;;;;;;;0.10;0.00;;;24.40;99.90;;;;;;20564876;28;20038;-40
2022/08/09 10:54:01;;;;;;;0.30;0.03;;;24.60;99.90;;;;;;20536352;28;20043;-39
2022/08/09 11:04:08;;;;;;;0.57;0.28;;;25.00;99.90;;;;;;20553938;28;20039;-40
2022/08/09 11:14:43;;;;;;;0.30;0.10;;;25.40;99.90;;;;;;20538504;28;20910;-40
2022/08/09 11:25:06;;;;;;;0.73;0.10;;;25.40;98.60;;;;;;20538102;28;21978;-40
2022/08/09 11:35:16;;;;;;;0.20;0.10;;;25.30;99.80;;;;;;20524418;28;20280;-40
2022/08/09 11:45:31;;;;;;;0.20;0.10;;;25.90;98.10;;;;;;20553745;28;20459;-40
2022/08/09 11:55:37;;;;;;;0.20;0.10;;;26.00;98.40;;;;;;20513984;28;20747;-40
2022/08/09 12:05:38;;;;;;;1.07;0.20;;;26.60;97.90;;;;;;20551080;28;20698;-40
2022/08/09 12:15:40;;;;;;;0.30;0.10;;;26.60;99.90;;;;;;20542914;28;20042;-40
2022/08/09 12:25:47;;;;;;;0.43;0.10;;;26.40;99.90;;;;;;20552967;28;20461;-40
2022/08/09 12:35:48;;;;;;;0.65;0.28;;;26.20;99.90;;;;;;20532413;28;20557;-40
2022/08/09 12:45:50;;;;;;;0.50;0.20;;;26.30;99.90;;;;;;20524459;28;20057;-40
2022/08/09 12:55:51;;;;;;;0.35;0.10;;;26.40;99.90;;;;;;20534566;28;20449;-40
2022/08/09 13:05:53;;;;;;;0.28;0.03;;;26.70;99.90;;;;;;20521840;28;20047;-40
2022/08/09 13:16:00;;;;;;;1.98;0.20;;;27.00;99.90;;;;;;20555361;28;20042;-40
2022/08/09 13:26:01;;;;;;;0.60;0.30;;;27.00;99.90;;;;;;20549429;28;20046;-40
2022/08/09 13:36:03;;;;;;;0.25;0.00;;;26.90;99.90;;;;;;20511143;28;20062;-40
2022/08/09 13:46:04;;;;;;;1.33;0.10;;;26.80;99.90;;;;;;20543004;28;20047;-40
2022/08/09 13:56:05;;;;;;;0.08;0.00;;;26.80;99.90;;;;;;20542120;28;20047;-40
2022/08/09 14:06:10;;;;;;;0.47;0.22;;;27.10;99.90;;;;;;20520838;28;20047;-40
2022/08/09 14:16:14;;;;;;;0.60;0.10;;;26.90;99.90;;;;;;20492851;28;20582;-40
2022/08/09 14:26:15;;;;;;;0.63;0.20;;;26.70;99.90;;;;;;20520806;28;20126;-40
2022/08/09 14:36:16;;;;;;;0.75;0.20;;;26.00;99.90;;;;;;20489193;28;20568;-40
2022/08/09 14:46:17;;;;;;;0.57;0.25;;;25.50;99.90;;;;;;20509968;28;20436;-40
2022/08/09 14:56:19;;;;;;;0.80;0.25;;;25.80;99.90;;;;;;20505776;28;20081;-40
2022/08/09 15:06:20;;;;;;;0.03;0.00;;;25.60;99.90;;;;;;20501573;28;20177;-40
2022/08/09 15:16:21;;;;;;;0.50;0.20;;;25.40;99.90;;;;;;20510592;28;20522;-40
2022/08/09 15:26:22;;;;;;;0.50;0.20;;;25.60;99.90;;;;;;20516930;28;20713;-40
2022/08/09 15:36:23;;;;;;;0.73;0.10;;;25.40;99.90;;;;;;20505323;28;20161;-40
2022/08/09 15:46:24;;;;;;;0.52;0.05;;;25.20;99.90;;;;;;20517694;28;20257;-40
2022/08/09 15:56:25;;;;;;;1.00;0.30;;;25.00;99.90;;;;;;20524550;28;20545;-39
2022/08/09 16:06:26;;;;;;;0.40;0.13;;;24.90;99.90;;;;;;20543335;28;20066;-39
2022/08/09 16:16:30;;;;;;;0.73;0.30;;;24.70;99.90;;;;;;20530134;28;20458;-39
2022/08/09 16:26:32;;;;;;;1.13;0.40;;;24.60;99.90;;;;;;20516273;28;20198;-39
2022/08/09 16:36:33;;;;;;;2.40;0.40;;;24.30;99.90;;;;;;20527322;28;20085;-39
2022/08/09 16:46:34;;;;;;;0.63;0.20;;;24.10;99.90;;;;;;20516619;28;20105;-39
2022/08/09 16:56:35;;;;;;;0.90;0.45;;;24.00;99.90;;;;;;20527181;28;20486;-39
2022/08/09 17:06:36;;;;;;;0.30;0.10;;;23.70;99.90;;;;;;20523305;28;20459;-39
2022/08/09 17:16:37;;;;;;;0.45;0.15;;;23.60;99.90;;;;;;20500102;28;20384;-39
2022/08/09 17:26:38;;;;;;;2.78;0.28;;;23.30;99.90;;;;;;20468804;28;20164;-40
2022/08/09 17:36:39;;;;;;;1.02;0.30;;;23.30;99.90;;;;;;20486655;28;20093;-40
2022/08/09 17:46:40;;;;;;;0.57;0.30;;;23.20;99.90;;;;;;20485617;28;20046;-40
2022/08/09 17:56:41;;;;;;;1.05;0.20;;;23.20;99.90;;;;;;20485057;28;20069;-40
2022/08/09 18:06:42;;;;;;;0.63;0.30;;;22.90;99.90;;;;;;20487055;28;20113;-40
2022/08/09 18:16:45;;;;;;;0.60;0.30;;;22.60;99.90;;;;;;20508862;28;20117;-40
2022/08/09 18:26:46;;;;;;;0.57;0.20;;;22.60;99.90;;;;;;20512492;28;20118;-40
2022/08/09 18:36:47;;;;;;;0.70;0.30;;;22.40;99.90;;;;;;20513331;28;20557;-40
2022/08/09 18:46:48;;;;;;;0.57;0.17;;;22.30;99.90;;;;;;20515356;28;20509;-40
2022/08/09 18:56:49;;;;;;;0.40;0.10;;;22.20;99.90;;;;;;20511397;28;21176;-40
2022/08/09 19:06:50;;;;;;;1.15;0.50;;;22.10;99.90;;;;;;20499347;28;20192;-40
2022/08/09 19:16:51;;;;;;;0.32;0.20;;;22.00;99.90;;;;;;20510532;28;20130;-40
2022/08/09 19:26:52;;;;;;;0.75;0.10;;;22.00;99.90;;;;;;20509645;28;20046;-40
2022/08/09 19:36:54;;;;;;;0.98;0.20;;;21.90;99.90;;;;;;20507073;28;20097;-40
2022/08/09 19:46:55;;;;;;;0.30;0.10;;;21.70;99.90;;;;;;20499850;28;22874;-40
2022/08/09 19:56:57;;;;;;;0.57;0.13;;;21.60;99.90;;;;;;20496644;28;20138;-40
2022/08/09 20:06:59;;;;;;;0.20;0.10;;;21.40;99.90;;;;;;20493911;28;20118;-39
2022/08/09 20:17:01;;;;;;;0.25;0.10;;;21.30;99.90;;;;;;20522822;28;20198;-39
2022/08/09 20:27:03;;;;;;;0.20;0.10;;;21.10;99.90;;;;;;20507922;28;20364;-39
2022/08/09 20:37:04;;;;;;;0.17;0.10;;;21.10;99.90;;;;;;20498594;28;21691;-39
2022/08/09 20:47:05;;;;;;;0.20;0.10;;;20.90;99.90;;;;;;20503222;28;21040;-40
2022/08/09 20:57:06;;;;;;;0.10;0.10;;;20.80;99.90;;;;;;20507117;28;20970;-40
2022/08/09 21:07:09;;;;;;;0.30;0.10;;;20.60;99.90;;;;;;20491297;28;20492;-40
2022/08/09 21:17:14;;;;;;;1.80;0.10;;;20.50;99.90;;;;;;20488859;28;20529;-40
2022/08/09 21:27:15;;;;;;;0.50;0.30;;;20.30;99.90;;;;;;20502194;28;20162;-40
2022/08/09 21:37:16;;;;;;;0.68;0.22;;;20.10;99.90;;;;;;20488265;28;20705;-39
2022/08/09 21:47:17;;;;;;;0.55;0.13;;;19.90;99.90;;;;;;20526463;28;20378;-40
2022/08/09 21:57:19;;;;;;;0.70;0.30;;;19.80;99.90;;;;;;20530913;28;20495;-39
2022/08/09 22:07:20;;;;;;;0.63;0.20;;;19.60;99.90;;;;;;20559650;28;20458;-39
2022/08/09 22:17:21;;;;;;;1.25;0.57;;;19.40;99.90;;;;;;20558216;28;20687;-39
2022/08/09 22:27:22;;;;;;;0.57;0.20;;;19.20;99.90;;;;;;20540364;28;20612;-40
2022/08/09 22:37:23;;;;;;;0.32;0.20;;;19.20;99.90;;;;;;20526534;28;20198;-39
2022/08/09 22:47:24;;;;;;;0.32;0.20;;;19.10;99.90;;;;;;20518900;28;20194;-39
2022/08/09 22:57:25;;;;;;;0.57;0.28;;;18.90;99.90;;;;;;20534602;28;20055;-39
2022/08/09 23:17:46;;;;;;;0.47;0.20;;;18.60;99.90;;;;;;20546934;28;20917;-39
2022/08/09 23:27:47;;;;;;;0.55;0.15;;;18.50;99.90;;;;;;20533716;28;20167;-39
2022/08/09 23:37:48;;;;;;;0.40;0.10;;;18.40;99.90;;;;;;20538940;28;20054;-39
2022/08/09 23:47:49;;;;;;;0.57;0.17;;;18.20;99.90;;;;;;20529242;28;20137;-39
2022/08/09 23:57:50;;;;;;;0.75;0.20;;;18.10;99.90;;;;;;20530393;28;20077;-39
